createdAt,value
2019-04-16T00:01:21.947Z,18.07
2019-04-16T00:03:55.280Z,26.40
2019-04-16T00:06:31.583Z,22.62
2019-04-16T00:09:06.913Z,16.93
2019-04-16T00:11:47.100Z,14.58
2019-04-16T00:14:35.262Z,19.80
2019-04-16T00:17:04.656Z,17.00
2019-04-16T00:19:34.773Z,22.00
2019-04-16T00:22:32.656Z,19.60
2019-04-16T00:25:01.944Z,16.45
2019-04-16T00:27:31.324Z,17.90
2019-04-16T00:30:03.933Z,19.87
2019-04-16T00:32:31.649Z,21.02
2019-04-16T00:35:01.069Z,19.82
2019-04-16T00:37:30.391Z,18.70
2019-04-16T00:39:59.562Z,17.23
2019-04-16T00:42:28.780Z,22.45
2019-04-16T00:44:57.978Z,19.77
2019-04-16T00:47:27.179Z,25.60
2019-04-16T00:49:58.817Z,18.73
2019-04-16T00:52:27.277Z,25.72
2019-04-16T00:54:56.972Z,18.37
2019-04-16T00:57:26.262Z,20.85
2019-04-16T00:59:56.768Z,21.77
2019-04-16T01:02:26.182Z,20.00
2019-04-16T01:04:55.361Z,27.32
2019-04-16T01:07:24.576Z,23.67
2019-04-16T01:09:53.837Z,16.35
2019-04-16T01:12:23.034Z,19.07
2019-04-16T01:14:52.413Z,20.48
2019-04-16T01:17:21.581Z,19.27
2019-04-16T01:19:50.763Z,18.15
2019-04-16T01:22:19.921Z,17.27
2019-04-16T01:24:51.861Z,26.50
2019-04-16T01:27:23.321Z,22.32
2019-04-16T01:29:52.537Z,22.27
2019-04-16T01:32:45.657Z,18.23
2019-04-16T01:35:32.722Z,22.85
2019-04-16T01:38:19.900Z,17.30
2019-04-16T01:40:54.778Z,20.72
2019-04-16T01:43:25.746Z,23.07
2019-04-16T01:45:55.108Z,21.25
2019-04-16T01:48:24.307Z,19.67
2019-04-16T01:50:55.534Z,22.75
2019-04-16T01:53:26.185Z,25.77
2019-04-16T01:55:57.041Z,22.32
2019-04-16T01:58:26.279Z,24.12
2019-04-16T02:00:55.467Z,20.12
2019-04-16T02:06:07.571Z,21.62
2019-04-16T02:08:36.769Z,26.02
2019-04-16T02:11:09.579Z,20.50
2019-04-16T02:13:36.955Z,20.77
2019-04-16T02:16:06.344Z,20.15
2019-04-16T02:18:35.492Z,17.92
2019-04-16T02:21:09.604Z,21.17
2019-04-16T02:23:35.638Z,21.07
2019-04-16T02:26:05.004Z,18.32
2019-04-16T02:28:34.329Z,21.33
2019-04-16T02:31:03.519Z,20.20
2019-04-16T02:33:32.668Z,20.75
2019-04-16T02:36:01.984Z,18.98
2019-04-16T02:38:31.200Z,21.60
2019-04-16T02:41:00.504Z,19.17
2019-04-16T02:43:29.651Z,25.25
2019-04-16T02:45:58.962Z,21.95
2019-04-16T02:48:28.121Z,24.60
2019-04-16T02:51:05.300Z,20.95
2019-04-16T02:53:47.287Z,20.32
2019-04-16T02:56:44.429Z,21.75
2019-04-16T02:59:17.355Z,20.92
2019-04-16T03:02:14.904Z,22.80
2019-04-16T03:04:48.151Z,21.97
2019-04-16T03:07:17.775Z,31.87
2019-04-16T03:10:00.311Z,22.17
2019-04-16T03:12:20.963Z,20.00
2019-04-16T03:14:48.724Z,22.90
2019-04-16T03:17:39.627Z,23.02
2019-04-16T03:20:09.277Z,21.52
2019-04-16T03:22:38.451Z,23.95
2019-04-16T03:25:12.645Z,27.00
2019-04-16T03:27:39.030Z,24.77
2019-04-16T03:30:09.363Z,18.10
2019-04-16T03:32:58.384Z,17.30
2019-04-16T03:35:27.614Z,19.80
2019-04-16T03:37:56.806Z,19.67
2019-04-16T03:40:26.159Z,22.98
2019-04-16T03:42:58.976Z,18.42
2019-04-16T03:45:26.627Z,28.15
2019-04-16T03:47:55.805Z,23.22
2019-04-16T03:50:24.981Z,20.72
2019-04-16T03:52:54.167Z,23.35
2019-04-16T03:55:26.315Z,22.67
2019-04-16T03:57:54.399Z,26.17
2019-04-16T04:00:23.721Z,19.37
2019-04-16T04:02:55.089Z,22.30
2019-04-16T04:05:23.982Z,19.75
2019-04-16T04:07:55.226Z,20.65
2019-04-16T04:10:31.002Z,18.92
2019-04-16T04:12:55.166Z,22.52
2019-04-16T04:15:26.392Z,28.87
2019-04-16T04:17:55.253Z,22.45
2019-04-16T04:20:24.408Z,27.30
2019-04-16T04:22:56.781Z,23.02
2019-04-16T04:25:24.629Z,32.20
2019-04-16T04:27:53.896Z,20.90
2019-04-16T04:30:25.670Z,30.05
2019-04-16T04:32:55.589Z,24.45
2019-04-16T04:35:24.744Z,20.35
2019-04-16T04:37:53.944Z,24.95
2019-04-16T04:40:23.111Z,21.48
2019-04-16T04:42:57.783Z,25.57
2019-04-16T04:45:26.190Z,23.32
2019-04-16T04:47:55.516Z,27.93
2019-04-16T04:50:24.799Z,20.23
2019-04-16T04:52:53.994Z,27.80
2019-04-16T04:55:23.445Z,25.48
2019-04-16T04:57:54.198Z,18.55
2019-04-16T05:00:23.723Z,20.50
2019-04-16T05:02:52.887Z,23.85
2019-04-16T05:05:30.317Z,24.32
2019-04-16T05:08:00.630Z,22.87
2019-04-16T05:10:30.042Z,23.77
2019-04-16T05:13:00.610Z,28.90
2019-04-16T05:15:30.179Z,25.27
2019-04-16T05:17:59.405Z,28.27
2019-04-16T05:20:29.972Z,23.20
2019-04-16T05:22:59.311Z,26.27
2019-04-16T05:25:32.966Z,27.48
2019-04-16T05:27:59.461Z,26.07
2019-04-16T05:30:28.734Z,28.23
2019-04-16T05:32:57.993Z,23.40
2019-04-16T05:35:27.281Z,25.75
2019-04-16T05:37:56.531Z,29.48
2019-04-16T05:40:27.594Z,24.10
2019-04-16T05:42:58.886Z,28.95
2019-04-16T05:45:27.547Z,29.20
2019-04-16T05:47:56.709Z,22.73
2019-04-16T05:50:28.505Z,26.45
2019-04-16T05:52:57.731Z,23.12
2019-04-16T05:55:49.894Z,26.48
2019-04-16T05:58:18.605Z,30.70
2019-04-16T06:01:05.712Z,28.10
2019-04-16T06:03:34.988Z,25.05
2019-04-16T06:06:04.185Z,24.20
2019-04-16T06:08:33.343Z,30.68
2019-04-16T06:11:02.526Z,23.62
2019-04-16T06:13:46.681Z,25.08
2019-04-16T06:16:43.994Z,25.20
2019-04-16T06:19:31.190Z,21.48
2019-04-16T06:22:18.087Z,19.85
2019-04-16T06:25:12.216Z,22.25
2019-04-16T06:27:55.515Z,25.52
2019-04-16T06:30:48.297Z,21.30
2019-04-16T06:33:25.134Z,22.85
2019-04-16T06:36:13.306Z,22.20
2019-04-16T06:38:45.867Z,28.60
2019-04-16T06:41:41.958Z,24.07
2019-04-16T06:44:14.997Z,26.90
2019-04-16T06:46:54.886Z,26.55
2019-04-16T06:49:41.942Z,27.60
2019-04-16T06:52:42.509Z,27.13
2019-04-16T06:55:28.865Z,26.82
2019-04-16T06:58:12.461Z,26.97
2019-04-16T07:01:07.935Z,24.60
2019-04-16T07:03:49.750Z,29.32
2019-04-16T07:06:37.167Z,26.93
2019-04-16T07:09:41.501Z,34.35
2019-04-16T07:12:07.606Z,27.20
2019-04-16T07:14:36.806Z,25.50
2019-04-16T07:17:05.966Z,26.30
2019-04-16T07:19:35.178Z,24.57
2019-04-16T07:22:04.432Z,27.95
2019-04-16T07:24:36.828Z,29.85
2019-04-16T07:27:04.700Z,29.05
2019-04-16T07:29:47.393Z,25.45
2019-04-16T07:32:38.685Z,30.52
2019-04-16T07:35:19.011Z,31.62
2019-04-16T07:38:11.301Z,35.15
2019-04-16T07:40:59.505Z,25.70
2019-04-16T07:43:46.559Z,27.90
2019-04-16T07:46:34.706Z,25.60
2019-04-16T07:49:13.790Z,26.02
2019-04-16T07:52:00.832Z,27.60
2019-04-16T07:54:47.887Z,32.42
2019-04-16T07:57:17.049Z,27.25
2019-04-16T07:59:46.244Z,29.60
2019-04-16T08:02:17.703Z,32.55
2019-04-16T08:04:46.385Z,26.97
2019-04-16T08:07:20.213Z,30.77
2019-04-16T08:09:46.741Z,31.12
2019-04-16T08:12:29.327Z,33.92
2019-04-16T08:14:49.000Z,36.50
2019-04-16T08:17:18.353Z,31.17
2019-04-16T08:19:48.968Z,29.92
2019-04-16T08:22:18.745Z,33.73
2019-04-16T08:24:57.586Z,27.50
2019-04-16T08:27:23.854Z,27.17
2019-04-16T08:29:53.280Z,28.90
2019-04-16T08:32:25.634Z,27.37
2019-04-16T08:34:53.754Z,27.93
2019-04-16T08:37:22.945Z,28.80
2019-04-16T08:39:52.418Z,33.88
2019-04-16T08:42:24.683Z,25.88
2019-04-16T08:44:52.544Z,29.02
2019-04-16T08:47:21.768Z,29.70
2019-04-16T08:49:54.077Z,27.60
2019-04-16T08:52:22.046Z,23.07
2019-04-16T08:54:54.752Z,26.40
2019-04-16T08:57:22.435Z,29.73
2019-04-16T08:59:51.636Z,30.00
2019-04-16T09:02:23.507Z,27.57
2019-04-16T09:04:53.383Z,33.40
2019-04-16T09:07:41.219Z,29.90
2019-04-16T09:10:23.551Z,31.30
2019-04-16T09:13:03.450Z,24.93
2019-04-16T09:15:27.313Z,30.37
2019-04-16T09:18:09.389Z,29.70
2019-04-16T09:20:40.513Z,26.30
2019-04-16T09:23:09.764Z,29.07
2019-04-16T09:26:12.983Z,24.60
2019-04-16T09:28:43.911Z,27.73
2019-04-16T09:31:37.902Z,29.93
2019-04-16T09:34:24.006Z,24.77
2019-04-16T09:37:12.266Z,27.73
2019-04-16T09:40:16.657Z,28.80
2019-04-16T09:42:40.651Z,24.73
2019-04-16T09:45:11.799Z,32.70
2019-04-16T09:47:41.001Z,32.30
2019-04-16T09:50:11.543Z,26.00
2019-04-16T09:52:40.899Z,26.30
2019-04-16T09:55:10.062Z,28.20
2019-04-16T09:57:39.241Z,26.67
2019-04-16T10:00:11.751Z,31.37
2019-04-16T10:02:41.149Z,27.80
2019-04-16T10:05:10.720Z,26.63
2019-04-16T10:07:41.032Z,29.40
2019-04-16T10:10:10.618Z,21.20
2019-04-16T10:12:39.850Z,29.90
2019-04-16T10:15:10.045Z,30.17
2019-04-16T10:17:39.393Z,30.63
2019-04-16T10:20:08.825Z,24.30
2019-04-16T10:22:38.009Z,32.60
2019-04-16T10:25:15.168Z,27.60
2019-04-16T10:28:06.445Z,29.53
2019-04-16T10:30:46.655Z,27.60
2019-04-16T10:33:15.871Z,29.20
2019-04-16T10:35:45.014Z,26.87
2019-04-16T10:38:29.247Z,22.17
2019-04-16T10:41:05.223Z,26.70
2019-04-16T10:43:45.285Z,33.70
2019-04-16T10:46:26.434Z,24.10
2019-04-16T10:49:10.782Z,32.73
2019-04-16T10:52:03.969Z,25.40
2019-04-16T10:54:40.647Z,25.53
2019-04-16T10:57:31.194Z,26.47
2019-04-16T11:00:13.608Z,22.73
2019-04-16T11:02:45.990Z,24.10
2019-04-16T11:05:40.312Z,27.43
2019-04-16T11:08:10.755Z,31.30
2019-04-16T11:10:39.949Z,24.70
2019-04-16T11:13:12.554Z,26.07
2019-04-16T11:15:41.842Z,24.73
2019-04-16T11:18:10.931Z,26.17
2019-04-16T11:20:40.108Z,27.40
2019-04-16T11:23:09.333Z,22.30
2019-04-16T11:25:38.716Z,22.50
2019-04-16T11:28:07.945Z,25.97
2019-04-16T11:30:40.329Z,29.17
2019-04-16T11:33:09.694Z,21.77
2019-04-16T11:35:38.901Z,29.77
2019-04-16T11:38:09.104Z,25.40
2019-04-16T11:40:41.076Z,21.40
2019-04-16T11:43:09.549Z,27.77
2019-04-16T11:45:38.820Z,21.47
2019-04-16T11:48:08.056Z,23.47
2019-04-16T11:50:37.335Z,22.13
2019-04-16T11:53:06.523Z,22.77
2019-04-16T11:55:35.817Z,18.70
2019-04-16T11:58:10.459Z,18.20
2019-04-16T12:00:45.629Z,14.83
2019-04-16T12:03:36.536Z,14.83
2019-04-16T12:06:28.358Z,13.90
2019-04-16T12:09:22.157Z,16.10
2019-04-16T12:12:02.485Z,16.80
2019-04-16T12:14:56.856Z,17.70
2019-04-16T12:17:36.307Z,17.17
2019-04-16T12:20:20.178Z,18.67
2019-04-16T12:23:02.827Z,20.70
2019-04-16T12:25:48.618Z,14.33
2019-04-16T12:28:35.531Z,17.00
2019-04-16T12:31:09.631Z,14.40
2019-04-16T12:33:57.804Z,16.87
2019-04-16T12:36:45.969Z,14.87
2019-04-16T12:39:35.781Z,14.70
2019-04-16T12:42:08.205Z,17.20
2019-04-16T12:45:09.536Z,20.27
2019-04-16T12:47:49.108Z,22.63
2019-04-16T12:50:35.335Z,17.90
2019-04-16T12:53:15.332Z,16.23
2019-04-16T12:56:08.574Z,21.63
2019-04-16T12:58:51.682Z,19.80
2019-04-16T13:01:40.011Z,26.30
2019-04-16T13:04:28.316Z,54.00
2019-04-16T13:07:01.343Z,30.70
2019-04-16T13:09:48.572Z,22.60
2019-04-16T13:12:26.708Z,20.03
2019-04-16T13:15:14.361Z,20.90
2019-04-16T13:18:09.726Z,15.70
2019-04-16T13:21:16.334Z,21.63
2019-04-16T13:23:52.564Z,22.37
2019-04-16T13:26:37.209Z,18.03
2019-04-16T13:29:11.833Z,21.50
2019-04-16T13:31:41.536Z,17.33
2019-04-16T13:34:10.723Z,22.63
2019-04-16T13:36:40.134Z,22.33
2019-04-16T13:39:25.097Z,18.07
2019-04-16T13:41:54.256Z,17.30
2019-04-16T13:44:25.427Z,23.27
2019-04-16T13:46:54.639Z,19.13
2019-04-16T13:49:42.989Z,23.17
2019-04-16T13:52:12.390Z,17.70
2019-04-16T13:55:10.402Z,21.27
2019-04-16T13:57:40.091Z,19.03
2019-04-16T14:00:23.636Z,21.80
2019-04-16T14:02:54.766Z,17.23
2019-04-16T14:05:24.340Z,18.67
2019-04-16T14:07:53.549Z,19.83
2019-04-16T14:10:22.814Z,22.23
2019-04-16T14:12:51.994Z,16.30
2019-04-16T14:15:31.706Z,18.30
2019-04-16T14:17:59.096Z,21.40
2019-04-16T14:20:25.378Z,14.70
2019-04-16T14:22:54.754Z,19.27
2019-04-16T14:25:23.955Z,16.73
2019-04-16T14:27:55.681Z,17.63
2019-04-16T14:30:28.924Z,16.17
2019-04-16T14:32:58.264Z,12.80
2019-04-16T14:35:33.418Z,18.90
2019-04-16T14:38:00.988Z,19.10
2019-04-16T14:40:30.860Z,16.97
2019-04-16T14:43:00.227Z,12.20
2019-04-16T14:45:58.282Z,16.93
2019-04-16T14:48:20.628Z,14.47
2019-04-16T14:50:49.791Z,15.50
2019-04-16T14:53:37.892Z,16.70
2019-04-16T14:56:18.860Z,16.70
2019-04-16T14:59:29.906Z,23.30
2019-04-16T15:01:52.749Z,16.43
2019-04-16T15:04:35.293Z,17.90
2019-04-16T15:07:10.327Z,17.40
2019-04-16T15:09:53.272Z,21.57
2019-04-16T15:12:53.478Z,14.10
2019-04-16T15:15:45.001Z,15.10
2019-04-16T15:18:27.335Z,18.03
2019-04-16T15:21:33.694Z,14.10
2019-04-16T15:24:20.205Z,16.23
2019-04-16T15:27:20.722Z,15.67
2019-04-16T15:30:11.695Z,21.57
2019-04-16T15:32:58.226Z,20.07
2019-04-16T15:35:38.266Z,19.50
2019-04-16T15:38:26.605Z,14.23
2019-04-16T15:40:58.976Z,14.00
2019-04-16T15:43:50.367Z,16.43
2019-04-16T15:46:40.975Z,19.80
2019-04-16T15:49:14.763Z,15.03
2019-04-16T15:51:51.575Z,15.50
2019-04-16T15:54:39.716Z,15.03
2019-04-16T15:57:32.020Z,12.60
2019-04-16T16:00:16.619Z,15.93
2019-04-16T16:02:59.281Z,13.50
2019-04-16T16:05:32.023Z,13.20
2019-04-16T16:08:14.123Z,10.27
2019-04-16T16:10:53.043Z,11.50
2019-04-16T16:13:22.654Z,15.70
2019-04-16T16:15:53.115Z,16.03
2019-04-16T16:18:22.337Z,20.00
2019-04-16T16:20:51.502Z,17.23
2019-04-16T16:23:20.804Z,17.43
2019-04-16T16:25:50.129Z,15.60
2019-04-16T16:28:19.430Z,16.37
2019-04-16T16:30:48.597Z,14.40
2019-04-16T16:33:17.807Z,14.97
2019-04-16T16:35:57.523Z,16.37
2019-04-16T16:38:20.812Z,17.70
2019-04-16T16:40:49.718Z,13.70
2019-04-16T16:43:19.670Z,17.83
2019-04-16T16:46:20.145Z,15.90
2019-04-16T16:48:54.692Z,24.43
2019-04-16T16:51:24.844Z,18.10
2019-04-16T16:54:11.451Z,16.00
2019-04-16T16:56:47.630Z,20.83
2019-04-16T16:59:26.269Z,21.37
2019-04-16T17:02:10.469Z,17.30
2019-04-16T17:04:43.520Z,18.80
2019-04-16T17:07:12.893Z,20.00
2019-04-16T17:09:42.131Z,18.93
2019-04-16T17:12:11.574Z,18.17
2019-04-16T17:14:40.770Z,19.20
2019-04-16T17:17:14.741Z,18.93
2019-04-16T17:19:41.403Z,19.40
2019-04-16T17:22:14.654Z,20.10
2019-04-16T17:24:42.813Z,20.83
2019-04-16T17:27:12.091Z,23.07
2019-04-16T17:29:41.295Z,18.63
2019-04-16T17:32:11.025Z,21.23
2019-04-16T17:34:41.836Z,22.27
2019-04-16T17:37:11.078Z,21.27
2019-04-16T17:39:52.434Z,22.47
2019-04-16T17:42:36.994Z,25.60
2019-04-16T17:45:21.077Z,21.93
2019-04-16T17:48:24.939Z,21.70
2019-04-16T17:51:13.106Z,20.33
2019-04-16T17:53:45.937Z,23.53
2019-04-16T17:56:34.459Z,20.90
2019-04-16T17:59:29.058Z,18.77
2019-04-16T18:02:21.030Z,19.80
2019-04-16T18:05:13.633Z,23.70
2019-04-16T18:08:08.302Z,21.13
2019-04-16T18:10:58.071Z,22.43
2019-04-16T18:13:58.747Z,16.10
2019-04-16T18:16:34.945Z,20.93
2019-04-16T18:19:38.314Z,17.97
2019-04-16T18:22:45.765Z,23.07
2019-04-16T18:25:54.915Z,18.50
2019-04-16T18:28:14.960Z,17.50
2019-04-16T18:30:52.359Z,16.77
2019-04-16T18:33:40.607Z,19.77
2019-04-16T18:36:19.762Z,15.50
2019-04-16T18:39:05.891Z,18.53
2019-04-16T18:41:57.152Z,16.33
2019-04-16T18:44:55.103Z,16.47
2019-04-16T18:47:39.573Z,16.60
2019-04-16T18:50:16.295Z,13.00
2019-04-16T18:52:45.782Z,15.83
2019-04-16T18:55:15.000Z,12.47
2019-04-16T18:57:44.212Z,14.53
2019-04-16T19:00:31.912Z,11.40
2019-04-16T19:03:01.676Z,10.27
2019-04-16T19:05:31.159Z,15.53
2019-04-16T19:08:01.028Z,16.60
2019-04-16T19:10:30.860Z,17.87
2019-04-16T19:13:00.535Z,13.93
2019-04-16T19:15:30.305Z,14.43
2019-04-16T19:17:59.697Z,15.27
2019-04-16T19:20:28.855Z,19.00
2019-04-16T19:22:58.087Z,15.30
2019-04-16T19:25:27.329Z,14.17
2019-04-16T19:27:56.747Z,17.90
2019-04-16T19:30:25.923Z,11.90
2019-04-16T19:33:00.262Z,17.10
2019-04-16T19:35:26.211Z,16.47
2019-04-16T19:37:55.397Z,16.23
2019-04-16T19:40:24.645Z,17.50
2019-04-16T19:42:54.048Z,13.93
2019-04-16T19:45:23.507Z,20.50
2019-04-16T19:48:00.318Z,16.20
2019-04-16T19:50:33.095Z,16.83
2019-04-16T19:52:57.289Z,16.53
2019-04-16T19:55:27.970Z,19.43
2019-04-16T19:57:58.004Z,17.10
2019-04-16T20:00:27.350Z,20.03
2019-04-16T20:02:56.819Z,17.17
2019-04-16T20:05:28.771Z,14.70
2019-04-16T20:07:57.757Z,14.93
2019-04-16T20:10:27.003Z,15.17
2019-04-16T20:12:59.190Z,16.50
2019-04-16T20:15:27.587Z,18.73
2019-04-16T20:17:57.292Z,18.90
2019-04-16T20:20:26.491Z,19.40
2019-04-16T20:22:55.719Z,17.57
2019-04-16T20:25:24.935Z,21.30
2019-04-16T20:27:54.164Z,22.90
2019-04-16T20:30:24.500Z,18.93
2019-04-16T20:32:53.674Z,15.00
2019-04-16T20:35:22.839Z,14.50
2019-04-16T20:37:54.271Z,15.17
2019-04-16T20:40:24.138Z,16.40
2019-04-16T20:42:53.653Z,14.50
2019-04-16T20:45:22.981Z,15.08
2019-04-16T20:47:52.176Z,17.77
2019-04-16T20:50:21.550Z,18.05
2019-04-16T20:52:51.071Z,14.03
2019-04-16T20:55:20.254Z,18.83
2019-04-16T20:57:49.607Z,16.60
2019-04-16T21:00:26.455Z,13.00
2019-04-16T21:02:57.032Z,17.15
2019-04-16T21:05:26.213Z,14.23
2019-04-16T21:07:55.421Z,14.83
2019-04-16T21:10:24.928Z,16.60
2019-04-16T21:12:55.067Z,17.10
2019-04-16T21:15:27.485Z,13.07
2019-04-16T21:17:55.681Z,11.93
2019-04-16T21:20:24.985Z,16.75
2019-04-16T21:22:57.394Z,15.53
2019-04-16T21:25:25.604Z,17.02
2019-04-16T21:28:14.417Z,14.60
2019-04-16T21:30:44.356Z,16.37
2019-04-16T21:33:20.442Z,11.70
2019-04-16T21:35:52.550Z,12.63
2019-04-16T21:38:42.276Z,15.20
2019-04-16T21:41:10.682Z,15.43
2019-04-16T21:43:40.421Z,16.17
2019-04-16T21:46:09.657Z,12.50
2019-04-16T21:48:39.491Z,12.60
2019-04-16T21:51:08.659Z,11.80
2019-04-16T21:53:37.847Z,11.93
2019-04-16T21:56:08.890Z,16.23
2019-04-16T21:58:38.367Z,16.67
2019-04-16T22:03:11.027Z,13.78
2019-04-16T22:05:40.262Z,12.60
2019-04-16T22:08:09.627Z,13.60
2019-04-16T22:10:38.965Z,15.53
2019-04-16T22:13:08.152Z,18.60
2019-04-16T22:15:37.324Z,17.60
2019-04-16T22:18:08.981Z,15.23
2019-04-16T22:20:37.431Z,19.80
2019-04-16T22:23:07.000Z,22.93
2019-04-16T22:25:36.308Z,18.97
2019-04-16T22:28:05.513Z,19.92
2019-04-16T22:30:35.804Z,23.83
2019-04-16T22:33:07.026Z,18.77
2019-04-16T22:35:36.207Z,20.33
2019-04-16T22:38:05.438Z,17.20
2019-04-16T22:40:44.560Z,18.12
2019-04-16T22:43:31.677Z,18.35
2019-04-16T22:46:19.959Z,18.35
2019-04-16T22:48:56.541Z,19.20
2019-04-16T22:51:26.711Z,16.57
2019-04-16T22:53:56.240Z,20.50
2019-04-16T22:56:53.748Z,20.03
2019-04-16T22:59:23.004Z,21.13
2019-04-16T23:01:53.370Z,15.63
2019-04-16T23:04:26.059Z,16.10
2019-04-16T23:06:53.938Z,10.53
2019-04-16T23:09:25.240Z,17.00
2019-04-16T23:11:55.898Z,17.77
2019-04-16T23:14:25.610Z,19.27
2019-04-16T23:16:55.074Z,16.43
2019-04-16T23:19:24.440Z,17.63
2019-04-16T23:21:53.645Z,14.80
2019-04-16T23:24:23.990Z,14.70
2019-04-16T23:26:53.310Z,20.70
2019-04-16T23:29:22.472Z,15.97
2019-04-16T23:31:55.056Z,17.17
2019-04-16T23:34:22.603Z,14.00
2019-04-16T23:36:51.945Z,12.98
2019-04-16T23:39:22.571Z,16.10
2019-04-16T23:41:51.753Z,15.73
2019-04-16T23:44:39.854Z,17.50
2019-04-16T23:47:25.750Z,16.17
2019-04-16T23:50:43.833Z,17.57
2019-04-16T23:53:07.982Z,20.72
2019-04-16T23:56:01.584Z,20.23
2019-04-16T23:58:46.455Z,19.42
